Time;durP1;ratioP1;P1;durP2;ratioP2;P2;SDS_P1;SDS_P2;PMS_P1;PMS_P2;Temp;Humidity;BMP_temperature;BMP_pressure;BME280_temperature;BME280_humidity;BME280_pressure;Samples;Min_cycle;Max_cycle;Signal;HPM_P1;HPM_P2
2022/08/22 00:00:33;;;;;;;9.37;4.60;;;;;;;16.89;84.79;101414.59;6216926;23;20071;-88
2022/08/22 00:03:17;;;;;;;10.85;4.30;;;;;;;16.96;85.12;101429.00;6190163;23;20084;-89
2022/08/22 00:06:00;;;;;;;10.82;3.95;;;;;;;16.91;84.66;101422.56;6190449;23;20055;-89
2022/08/22 00:08:46;;;;;;;9.35;4.05;;;;;;;16.92;84.22;101418.72;6189546;23;20070;-89
2022/08/22 00:11:49;;;;;;;10.32;4.50;;;;;;;16.99;84.03;101431.25;6216444;23;20040;-89
2022/08/22 00:24:54;;;;;;;9.52;4.05;;;;;;;17.00;86.44;101432.06;6215912;23;20024;-89
2022/08/22 00:27:32;;;;;;;7.25;3.50;;;;;;;16.96;86.48;101420.78;6189163;23;20016;-89
2022/08/22 00:30:18;;;;;;;10.83;3.93;;;;;;;16.97;84.57;101425.16;6190730;23;20043;-89
2022/08/22 00:32:49;;;;;;;7.95;3.40;;;;;;;16.90;85.55;101418.16;6189319;23;20461;-88
2022/08/22 00:35:39;;;;;;;7.65;3.40;;;;;;;16.94;84.82;101427.56;6189334;23;20063;-88
2022/08/22 00:38:12;;;;;;;7.32;3.85;;;;;;;16.89;85.77;101422.81;6189942;23;20004;-88
2022/08/22 00:44:01;;;;;;;8.77;3.67;;;;;;;16.91;87.15;101425.31;6168514;23;20039;-89
2022/08/22 00:46:53;;;;;;;8.55;3.50;;;;;;;16.89;86.99;101430.19;6216158;23;20036;-88
2022/08/22 00:49:51;;;;;;;7.88;3.63;;;;;;;16.88;86.78;101431.28;6190448;23;20009;-88
2022/08/22 00:52:40;;;;;;;5.68;3.45;;;;;;;16.84;87.69;101434.47;6215705;23;20005;-88
2022/08/22 00:55:32;;;;;;;8.52;3.42;;;;;;;16.83;86.71;101435.56;6190203;23;20016;-88
2022/08/22 00:58:09;;;;;;;7.93;3.73;;;;;;;16.80;88.17;101436.03;6149613;23;20039;-88
2022/08/22 01:00:42;;;;;;;12.52;3.80;;;;;;;16.73;88.00;101427.13;6190116;23;20013;-88
2022/08/22 01:03:13;;;;;;;8.90;3.90;;;;;;;16.77;87.21;101430.19;6216052;23;20005;-88
2022/08/22 01:06:10;;;;;;;10.32;4.35;;;;;;;16.75;86.34;101435.09;6189696;23;20005;-88
2022/08/22 01:08:57;;;;;;;7.10;3.72;;;;;;;16.77;85.94;101431.03;6189138;23;20027;-87
2022/08/22 01:11:47;;;;;;;6.70;4.00;;;;;;;16.76;86.10;101426.63;6189694;23;20420;-88
2022/08/22 01:14:49;;;;;;;9.93;4.20;;;;;;;16.76;86.37;101425.81;6189486;23;20005;-87
2022/08/22 01:17:17;;;;;;;8.77;3.78;;;;;;;16.74;87.76;101419.72;6189043;23;20039;-88
2022/08/22 01:20:20;;;;;;;11.52;4.05;;;;;;;16.75;87.72;101422.22;6189629;23;20009;-88
2022/08/22 01:23:16;;;;;;;10.02;4.50;;;;;;;16.74;87.80;101423.31;6189325;23;20018;-88
2022/08/22 01:26:22;;;;;;;12.73;5.20;;;;;;;16.77;86.82;101425.56;6190058;23;20013;-87
2022/08/22 01:29:15;;;;;;;13.70;5.10;;;;;;;16.77;86.32;101422.81;6190399;23;20043;-88
2022/08/22 01:31:54;;;;;;;12.88;5.47;;;;;;;16.77;85.98;101425.56;6189845;23;20020;-88
2022/08/22 01:34:47;;;;;;;13.27;5.40;;;;;;;16.76;86.34;101425.81;6189594;23;20066;-88
2022/08/22 01:37:48;;;;;;;9.02;5.15;;;;;;;16.77;86.51;101427.47;6218060;23;20411;-88
2022/08/22 01:40:33;;;;;;;10.97;6.57;;;;;;;16.74;86.23;101423.31;6191388;23;20005;-88
2022/08/22 01:43:27;;;;;;;14.50;5.90;;;;;;;16.74;85.75;101416.97;6191393;23;20058;-88
2022/08/22 01:46:30;;;;;;;14.85;6.15;;;;;;;16.75;85.40;101414.00;6191516;23;20040;-88
2022/08/22 01:49:16;;;;;;;9.00;5.85;;;;;;;16.74;85.25;101423.31;6214992;23;20008;-88
2022/08/22 01:52:00;;;;;;;13.18;6.78;;;;;;;16.75;85.20;101422.22;6191257;23;20004;-88
2022/08/22 01:54:58;;;;;;;14.60;6.73;;;;;;;16.78;84.63;101424.47;6191039;23;20526;-88
2022/08/22 01:57:25;;;;;;;13.05;6.72;;;;;;;16.78;84.87;101424.47;6190002;23;20052;-88
2022/08/22 01:59:56;;;;;;;13.80;6.65;;;;;;;16.77;84.88;101424.72;6190946;23;20419;-88
2022/08/22 02:02:27;;;;;;;13.65;7.00;;;;;;;16.77;84.15;101422.81;6217236;23;20435;-88
2022/08/22 02:05:21;;;;;;;15.35;6.70;;;;;;;16.78;83.76;101421.72;6190707;23;20054;-88
2022/08/22 02:08:26;;;;;;;12.33;6.67;;;;;;;16.81;83.13;101414.94;6170089;23;20039;-88
2022/08/22 02:11:05;;;;;;;14.60;6.35;;;;;;;16.80;82.72;101411.38;6217370;23;20062;-88
2022/08/22 02:13:34;;;;;;;12.30;6.28;;;;;;;16.82;82.83;101420.19;6191204;23;20051;-88
2022/08/22 02:16:11;;;;;;;13.73;7.32;;;;;;;16.84;82.43;101425.41;6190775;23;20020;-88
2022/08/22 02:18:48;;;;;;;12.20;6.43;;;;;;;16.86;82.44;101409.56;6190507;23;20005;-88
2022/08/22 02:21:40;;;;;;;17.57;7.30;;;;;;;16.85;82.15;101413.38;6191072;23;20035;-88
2022/08/22 02:24:22;;;;;;;10.80;6.68;;;;;;;16.83;82.00;101410.06;6190629;23;20009;-88
2022/08/22 02:27:04;;;;;;;9.57;6.50;;;;;;;16.83;82.92;101412.81;6190980;23;20013;-89
2022/08/22 02:29:47;;;;;;;12.38;6.60;;;;;;;16.83;82.76;101412.81;6191552;23;20005;-88
2022/08/22 02:32:38;;;;;;;13.00;6.78;;;;;;;16.80;83.52;101411.38;6191015;23;20012;-87
2022/08/22 02:35:18;;;;;;;15.07;6.80;;;;;;;16.81;83.86;101407.53;6191269;23;20099;-88
2022/08/22 02:38:40;;;;;;;16.02;7.07;;;;;;;16.83;83.70;101408.16;6190804;23;20337;-88
2022/08/22 02:41:15;;;;;;;12.20;6.53;;;;;;;16.80;83.76;101405.91;6124809;23;20009;-88
2022/08/22 02:43:51;;;;;;;12.77;6.60;;;;;;;16.79;83.59;101404.22;6124776;23;20010;-88
2022/08/22 02:46:42;;;;;;;13.88;6.88;;;;;;;16.78;84.01;101405.28;6165375;23;20450;-88
2022/08/22 02:49:26;;;;;;;12.10;6.67;;;;;;;16.80;84.13;101407.78;6190674;23;20427;-88
2022/08/22 02:52:18;;;;;;;15.50;6.05;;;;;;;16.82;83.21;101408.38;6191513;23;20051;-88
2022/08/22 02:54:44;;;;;;;15.18;6.70;;;;;;;16.80;83.43;101414.13;6191421;23;20315;-88
2022/08/22 02:57:18;;;;;;;12.97;6.20;;;;;;;16.82;83.50;101413.88;6190387;23;20015;-88
2022/08/22 03:00:12;;;;;;;14.38;6.32;;;;;;;16.79;83.00;101409.69;6190352;23;20016;-88
2022/08/22 03:02:43;;;;;;;18.00;7.53;;;;;;;16.76;82.84;101398.41;6189853;23;20091;-88
2022/08/22 03:05:28;;;;;;;16.75;6.70;;;;;;;16.73;82.90;101404.38;6190140;23;20012;-88
2022/08/22 03:08:15;;;;;;;18.30;6.77;;;;;;;16.68;83.92;101410.56;6189879;23;20012;-87
2022/08/22 03:11:16;;;;;;;15.27;7.10;;;;;;;16.65;83.85;101413.78;6217188;23;20004;-88
2022/08/22 03:13:54;;;;;;;11.90;6.93;;;;;;;16.60;84.21;101416.44;6190197;23;20008;-88
2022/08/22 03:16:33;;;;;;;11.98;7.07;;;;;;;16.51;84.70;101401.47;6190856;23;20000;-88
2022/08/22 03:19:13;;;;;;;12.07;6.80;;;;;;;16.47;84.58;101410.13;6190930;23;20012;-87
2022/08/22 03:21:54;;;;;;;13.53;7.13;;;;;;;16.42;84.94;101406.47;6190175;23;20005;-87
2022/08/22 03:24:20;;;;;;;15.45;6.57;;;;;;;16.37;85.33;101399.00;6189908;23;20036;-88
2022/08/22 03:26:55;;;;;;;13.87;7.37;;;;;;;16.33;85.65;101388.72;6190443;23;20015;-88
2022/08/22 03:29:29;;;;;;;13.73;7.27;;;;;;;16.25;86.00;101389.94;6190452;23;20244;-88
2022/08/22 03:32:06;;;;;;;14.18;7.30;;;;;;;16.20;86.12;101385.19;6191097;23;20062;-88
2022/08/22 03:34:41;;;;;;;14.00;7.50;;;;;;;16.17;86.85;101384.84;6190930;23;20323;-88
2022/08/22 03:37:17;;;;;;;12.40;7.30;;;;;;;16.13;87.80;101396.25;6189776;23;20066;-88
2022/08/22 03:40:01;;;;;;;18.42;8.40;;;;;;;16.09;87.13;101386.03;6190206;23;20008;-88
2022/08/22 03:42:51;;;;;;;13.57;8.60;;;;;;;16.03;88.48;101386.97;6190266;23;20028;-86
2022/08/22 03:45:41;;;;;;;14.07;7.28;;;;;;;15.99;88.68;101378.44;6190473;23;20063;-86
2022/08/22 03:48:34;;;;;;;13.18;6.95;;;;;;;15.97;88.49;101380.56;6190158;23;20031;-86
2022/08/22 03:51:11;;;;;;;16.38;7.93;;;;;;;15.94;89.22;101376.41;6145275;23;20008;-86
2022/08/22 03:53:55;;;;;;;16.25;8.27;;;;;;;15.90;88.39;101368.91;6217025;23;20001;-86
2022/08/22 03:56:37;;;;;;;15.33;7.33;;;;;;;15.86;89.00;101376.75;6216443;23;19997;-86
2022/08/22 03:59:42;;;;;;;14.63;8.23;;;;;;;15.78;89.07;101377.09;6190279;23;20300;-87
2022/08/22 04:02:31;;;;;;;11.98;7.43;;;;;;;15.74;90.15;101382.19;6163834;23;20009;-86
2022/08/22 04:05:43;;;;;;;15.73;8.05;;;;;;;15.71;89.54;101379.13;6216650;23;20005;-86
2022/08/22 04:08:26;;;;;;;23.65;8.85;;;;;;;15.65;90.51;101374.56;6160854;23;20374;-86
2022/08/22 04:11:41;;;;;;;15.30;8.57;;;;;;;15.60;90.17;101378.88;6190108;23;20423;-86
2022/08/22 04:14:43;;;;;;;15.32;8.27;;;;;;;15.57;90.09;101381.22;6190022;23;20023;-86
2022/08/22 04:17:49;;;;;;;18.52;8.55;;;;;;;15.55;89.74;101386.94;6189606;23;20011;-85
2022/08/22 04:21:02;;;;;;;18.13;8.60;;;;;;;15.58;90.62;101399.31;6190250;23;20423;-86
2022/08/22 04:23:42;;;;;;;15.98;8.20;;;;;;;15.59;90.95;101393.59;6126867;23;20426;-86
2022/08/22 04:26:14;;;;;;;20.10;9.07;;;;;;;15.65;91.23;101394.56;6216319;23;20011;-86
2022/08/22 04:28:50;;;;;;;17.45;9.05;;;;;;;15.70;91.75;101402.06;6189601;23;20016;-86
2022/08/22 04:31:29;;;;;;;17.33;8.85;;;;;;;15.69;90.92;101401.22;6190040;23;20036;-86
2022/08/22 04:34:16;;;;;;;17.70;9.02;;;;;;;15.74;91.28;101400.53;6189174;23;20427;-86
2022/08/22 04:37:07;;;;;;;15.52;8.27;;;;;;;15.78;90.88;101399.00;6189119;23;20009;-86
2022/08/22 04:39:58;;;;;;;16.53;8.73;;;;;;;15.78;90.30;101402.56;6189589;23;20009;-86
2022/08/22 04:42:48;;;;;;;12.55;8.18;;;;;;;15.85;91.23;101404.34;6190118;23;20015;-87
2022/08/22 04:45:38;;;;;;;15.73;8.98;;;;;;;15.89;91.29;101406.38;6189776;23;20031;-86
2022/08/22 04:48:32;;;;;;;21.35;8.90;;;;;;;15.91;90.08;101398.75;6190506;23;20023;-86
2022/08/22 04:51:09;;;;;;;14.05;7.63;;;;;;;15.93;90.61;101396.63;6189850;23;20419;-86
2022/08/22 04:54:01;;;;;;;13.53;7.87;;;;;;;15.96;89.93;101401.63;6189865;23;20001;-86
2022/08/22 04:57:18;;;;;;;17.67;7.80;;;;;;;16.01;89.29;101403.66;6189295;23;20012;-86
2022/08/22 04:59:45;;;;;;;15.82;7.53;;;;;;;16.04;89.81;101408.63;6099601;23;20141;-87
2022/08/22 05:02:18;;;;;;;13.75;7.18;;;;;;;16.09;89.21;101408.78;6180983;23;20008;-86
2022/08/22 05:04:53;;;;;;;17.05;8.38;;;;;;;16.18;88.70;101403.78;6190364;23;20004;-86
2022/08/22 05:07:23;;;;;;;12.97;8.30;;;;;;;16.23;88.96;101411.25;6189431;23;20441;-86
2022/08/22 05:10:06;;;;;;;16.92;8.38;;;;;;;16.28;88.55;101406.75;6189949;23;20036;-86
2022/08/22 05:12:36;;;;;;;12.85;7.68;;;;;;;16.38;88.66;101413.50;6191558;23;20012;-87
2022/08/22 05:15:12;;;;;;;17.92;8.52;;;;;;;16.38;89.29;101414.31;6191030;23;20040;-86
2022/08/22 05:17:41;;;;;;;19.30;8.88;;;;;;;16.43;89.03;101408.97;6191512;23;20036;-86
2022/08/22 05:20:13;;;;;;;12.73;7.87;;;;;;;16.52;88.85;101422.28;6191192;23;20335;-86
2022/08/22 05:22:42;;;;;;;15.32;7.55;;;;;;;16.56;88.04;101416.06;6191486;23;20014;-86
2022/08/22 05:25:21;;;;;;;16.85;8.15;;;;;;;16.60;87.79;101411.78;6191310;23;20000;-86
2022/08/22 05:27:59;;;;;;;14.93;8.35;;;;;;;16.64;87.96;101410.22;6191492;23;20012;-89
2022/08/22 05:30:30;;;;;;;18.45;8.48;;;;;;;16.70;87.14;101413.06;6192378;23;20068;-94
2022/08/22 05:32:58;;;;;;;18.13;9.00;;;;;;;16.75;87.31;101415.91;6190319;23;20016;-93
2022/08/22 05:35:37;;;;;;;13.35;8.32;;;;;;;16.81;87.01;101420.41;6192126;23;20091;-93
2022/08/22 05:38:13;;;;;;;23.13;9.48;;;;;;;16.86;86.79;101422.44;6191950;23;20017;-93
2022/08/22 05:40:43;;;;;;;15.40;8.27;;;;;;;16.90;86.07;101420.91;6190464;23;20451;-92
2022/08/22 05:43:11;;;;;;;15.65;9.07;;;;;;;16.95;85.98;101410.88;6191963;23;20431;-90
2022/08/22 05:45:45;;;;;;;16.43;8.53;;;;;;;17.02;85.85;101418.94;6191381;23;20006;-94
2022/08/22 05:48:15;;;;;;;18.60;8.73;;;;;;;17.09;85.54;101427.03;6191925;23;20012;-94
2022/08/22 05:50:53;;;;;;;17.50;8.73;;;;;;;17.14;85.19;101425.22;6191441;23;20044;-93
2022/08/22 05:53:37;;;;;;;14.02;8.35;;;;;;;17.20;84.82;101420.66;6218073;23;20035;-92
2022/08/22 05:56:11;;;;;;;14.85;8.50;;;;;;;17.27;84.43;101420.50;6192023;23;20027;-94
2022/08/22 05:59:04;;;;;;;20.33;8.80;;;;;;;17.33;84.52;101420.34;6192285;23;20012;-92
2022/08/22 06:01:37;;;;;;;16.55;8.70;;;;;;;17.35;84.88;101409.13;6191650;23;20005;-94
2022/08/22 06:04:06;;;;;;;14.07;7.95;;;;;;;17.40;84.57;101411.13;6191786;23;20016;-91
2022/08/22 06:06:53;;;;;;;21.27;9.32;;;;;;;17.45;84.30;101420.28;6191430;23;20036;-93
2022/08/22 06:09:32;;;;;;;12.38;8.25;;;;;;;17.56;84.21;101421.28;6186683;23;20109;-90
2022/08/22 06:12:19;;;;;;;18.57;8.33;;;;;;;17.65;83.92;101419.78;6186186;23;20020;-92
2022/08/22 06:15:18;;;;;;;;;;;;;;;;;;;;;
2022/08/22 06:17:59;;;;;;;15.85;8.40;;;;;;;17.87;82.56;101417.13;6187623;23;20081;-91
2022/08/22 06:20:38;;;;;;;20.52;8.63;;;;;;;18.00;82.00;101418.72;6188079;23;20012;-91
2022/08/22 06:26:18;;;;;;;22.57;8.77;;;;;;;18.23;80.64;101417.72;6188090;23;20056;-96
2022/08/22 06:29:15;;;;;;;15.55;8.27;;;;;;;18.41;80.57;101418.50;6186467;23;20371;-95
2022/08/22 06:31:51;;;;;;;16.13;8.95;;;;;;;18.51;79.44;101426.03;6184454;23;20451;-88
2022/08/22 06:34:30;;;;;;;20.33;8.90;;;;;;;18.60;78.86;101432.72;6185915;23;20017;-87
2022/08/22 06:37:01;;;;;;;16.38;8.95;;;;;;;18.66;77.96;101425.38;6186560;23;20499;-87
2022/08/22 06:39:34;;;;;;;18.23;8.87;;;;;;;18.76;77.88;101431.88;6187730;23;20084;-88
2022/08/22 06:42:18;;;;;;;19.50;8.65;;;;;;;18.89;77.35;101432.59;6187352;23;20071;-88
2022/08/22 06:45:15;;;;;;;20.98;9.23;;;;;;;19.04;77.21;101435.50;6186345;23;20012;-88
2022/08/22 06:47:50;;;;;;;14.10;8.20;;;;;;;19.14;76.47;101433.97;6185634;23;20092;-88
2022/08/22 06:50:29;;;;;;;20.63;8.93;;;;;;;19.22;76.24;101430.72;6185340;23;20005;-88
2022/08/22 06:53:36;;;;;;;18.57;8.83;;;;;;;19.38;76.06;101431.72;6185613;23;20016;-88
2022/08/22 06:56:10;;;;;;;12.90;8.70;;;;;;;19.40;74.77;101435.88;6185659;23;20096;-87
2022/08/22 06:58:49;;;;;;;18.67;9.13;;;;;;;19.49;74.76;101444.50;6185596;23;20016;-87
2022/08/22 07:01:22;;;;;;;20.58;9.18;;;;;;;19.58;74.24;101448.41;6185278;23;20041;-88
2022/08/22 07:03:51;;;;;;;15.52;8.77;;;;;;;19.61;74.28;101450.66;6185590;23;20351;-87
2022/08/22 07:06:29;;;;;;;15.03;9.30;;;;;;;19.72;74.36;101453.50;6185230;23;20016;-88
2022/08/22 07:08:55;;;;;;;16.73;8.93;;;;;;;19.79;73.51;101454.97;6211172;23;20084;-90
2022/08/22 07:11:38;;;;;;;18.63;10.20;;;;;;;19.84;74.10;101458.84;6189761;23;20035;-87
2022/08/22 07:14:11;;;;;;;18.73;9.40;;;;;;;19.88;73.57;101451.72;6190993;23;20466;-87
2022/08/22 07:16:53;;;;;;;18.27;9.77;;;;;;;19.98;73.34;101460.91;6191033;23;20012;-88
2022/08/22 07:19:26;;;;;;;17.58;9.65;;;;;;;20.04;72.72;101449.94;6191372;23;20009;-87
2022/08/22 07:21:52;;;;;;;14.55;9.60;;;;;;;20.18;72.04;101455.78;6190716;23;20314;-87
2022/08/22 07:24:27;;;;;;;16.73;9.95;;;;;;;20.33;71.79;101448.47;6165439;23;20419;-87
2022/08/22 07:27:07;;;;;;;15.53;9.40;;;;;;;20.56;71.81;101459.34;6217329;23;20036;-87
2022/08/22 07:29:57;;;;;;;15.10;10.20;;;;;;;20.78;71.28;101457.25;6216956;23;20008;-87
2022/08/22 07:32:49;;;;;;;20.55;10.55;;;;;;;20.96;70.22;101455.13;6189837;23;20012;-87
2022/08/22 07:35:18;;;;;;;18.17;11.30;;;;;;;21.23;69.18;101443.03;6216233;23;20008;-87
2022/08/22 07:37:47;;;;;;;17.10;9.55;;;;;;;21.45;68.62;101446.41;6189809;23;20009;-88
2022/08/22 07:40:20;;;;;;;19.67;10.40;;;;;;;21.70;67.65;101439.25;6190244;23;20009;-88
2022/08/22 07:42:57;;;;;;;17.25;10.45;;;;;;;21.86;67.56;101442.84;6216571;23;20477;-87
2022/08/22 07:45:53;;;;;;;18.92;10.88;;;;;;;22.07;68.04;101425.16;6190333;23;20040;-88
2022/08/22 07:48:32;;;;;;;17.92;10.38;;;;;;;22.02;66.73;101430.66;6189811;23;20005;-88
2022/08/22 07:51:10;;;;;;;16.52;9.70;;;;;;;22.05;66.38;101429.28;6189945;23;20005;-87
2022/08/22 07:53:41;;;;;;;20.60;10.00;;;;;;;22.08;65.88;101437.84;6190699;23;20040;-87
2022/08/22 07:56:30;;;;;;;17.90;10.27;;;;;;;22.16;67.00;101433.69;6215971;23;20004;-88
2022/08/22 07:59:02;;;;;;;19.38;9.77;;;;;;;22.22;65.27;101435.34;6216684;23;20008;-87
2022/08/22 08:01:31;;;;;;;21.52;9.40;;;;;;;22.42;64.41;101431.72;6190048;23;20043;-88
2022/08/22 08:04:06;;;;;;;14.25;9.27;;;;;;;22.66;64.48;101441.31;6189412;23;20426;-87
2022/08/22 08:06:33;;;;;;;17.13;9.43;;;;;;;22.85;63.11;101424.91;6216041;23;20004;-87
2022/08/22 08:09:00;;;;;;;15.75;9.10;;;;;;;23.07;62.67;101422.56;6189664;23;20102;-87
2022/08/22 08:11:29;;;;;;;13.80;8.65;;;;;;;23.25;61.93;101426.66;6216162;23;20040;-88
2022/08/22 08:14:05;;;;;;;17.02;8.20;;;;;;;23.39;61.78;101424.06;6216238;23;20011;-88
2022/08/22 08:16:56;;;;;;;14.75;8.20;;;;;;;23.47;60.66;101420.69;6215958;23;20008;-88
2022/08/22 08:19:23;;;;;;;13.00;8.27;;;;;;;23.73;59.84;101414.91;6190104;23;20362;-88
2022/08/22 08:21:55;;;;;;;14.20;7.90;;;;;;;23.92;59.61;101411.47;6189483;23;20099;-88
2022/08/22 08:24:28;;;;;;;15.52;7.78;;;;;;;24.21;59.37;101413.38;6189409;23;20004;-88
2022/08/22 08:29:50;;;;;;;13.57;6.50;;;;;;;24.50;57.32;101402.22;6216559;23;20016;-88
2022/08/22 08:32:16;;;;;;;16.37;6.90;;;;;;;24.64;56.57;101405.97;6216142;23;20009;-88
2022/08/22 08:34:44;;;;;;;15.88;6.07;;;;;;;24.82;55.21;101409.06;6189933;23;20372;-88
2022/08/22 08:37:34;;;;;;;16.00;5.90;;;;;;;25.02;55.38;101410.69;6215664;23;20075;-88
2022/08/22 08:40:06;;;;;;;14.77;5.20;;;;;;;25.24;53.14;101410.09;6189393;23;20000;-88
2022/08/22 08:43:28;;;;;;;12.02;4.93;;;;;;;25.53;54.66;101406.34;6216820;23;20044;-88
2022/08/22 08:46:24;;;;;;;12.07;4.30;;;;;;;25.59;53.77;101404.31;6217935;23;20000;-88
2022/08/22 08:49:19;;;;;;;14.18;4.20;;;;;;;25.56;52.36;101401.00;6183193;23;20058;-88
2022/08/22 08:52:21;;;;;;;13.82;4.38;;;;;;;25.55;52.06;101412.41;6191516;23;20071;-88
2022/08/22 08:55:03;;;;;;;10.23;3.55;;;;;;;25.52;51.08;101399.94;6191635;23;20012;-88
2022/08/22 08:57:44;;;;;;;9.13;3.63;;;;;;;25.58;50.84;101399.88;6191232;23;20374;-88
2022/08/22 09:01:01;;;;;;;9.63;4.03;;;;;;;25.54;51.50;101396.88;6191710;23;20326;-88
2022/08/22 09:04:03;;;;;;;13.65;4.10;;;;;;;25.56;51.31;101395.44;6191540;23;20100;-89
2022/08/22 09:07:00;;;;;;;8.48;4.00;;;;;;;25.59;50.63;101402.34;6188860;23;20005;-89
2022/08/22 09:09:48;;;;;;;10.00;3.97;;;;;;;25.60;50.47;101392.91;6190940;23;20016;-88
2022/08/22 09:12:45;;;;;;;13.27;4.22;;;;;;;25.65;50.04;101391.97;6172992;23;20072;-88
2022/08/22 09:15:37;;;;;;;9.57;3.80;;;;;;;25.79;48.73;101389.22;6218442;23;20001;-89
2022/08/22 09:18:12;;;;;;;11.35;4.20;;;;;;;25.93;48.73;101390.06;6135967;23;20095;-88
2022/08/22 09:21:07;;;;;;;10.85;4.18;;;;;;;26.05;49.17;101392.38;6191235;23;20367;-88
2022/08/22 09:23:46;;;;;;;11.82;4.05;;;;;;;26.16;47.62;101381.88;6191522;23;20004;-88
2022/08/22 09:26:49;;;;;;;12.18;4.05;;;;;;;26.32;47.90;101390.75;6217233;23;20394;-88
2022/08/22 09:29:27;;;;;;;12.37;4.30;;;;;;;26.50;45.33;101386.19;6191221;23;20099;-88
2022/08/22 09:32:29;;;;;;;8.43;3.60;;;;;;;26.67;46.70;101391.97;6218037;23;20015;-88
2022/08/22 09:35:31;;;;;;;9.20;4.10;;;;;;;26.84;45.83;101391.34;6190999;23;20063;-89
2022/08/22 09:38:16;;;;;;;7.63;3.20;;;;;;;27.09;45.17;101387.16;6191187;23;20016;-88
2022/08/22 09:40:49;;;;;;;7.85;3.28;;;;;;;27.14;43.03;101381.44;6217732;23;20008;-88
2022/08/22 09:43:23;;;;;;;11.43;3.97;;;;;;;27.17;42.68;101393.09;6191899;23;20024;-88
2022/08/22 09:46:05;;;;;;;8.40;3.53;;;;;;;27.27;43.13;101384.50;6191177;23;20370;-88
2022/08/22 09:49:02;;;;;;;12.43;3.85;;;;;;;27.58;43.21;101394.88;6191669;23;20051;-88
2022/08/22 09:51:57;;;;;;;11.98;4.15;;;;;;;27.77;42.54;101391.88;6190341;23;20001;-87
2022/08/22 09:54:34;;;;;;;13.65;3.70;;;;;;;27.81;41.78;101390.09;6191900;23;20008;-89
2022/08/22 09:57:26;;;;;;;12.50;3.53;;;;;;;28.09;41.47;101390.75;6190378;23;20005;-88
2022/08/22 10:00:13;;;;;;;8.05;3.38;;;;;;;28.48;41.56;101385.47;6217410;23;20415;-89
2022/08/22 10:02:54;;;;;;;8.23;3.40;;;;;;;28.68;39.66;101375.69;6191792;23;20316;-89
2022/08/22 10:05:29;;;;;;;9.48;3.20;;;;;;;28.70;37.24;101379.81;6217315;23;20035;-93
2022/08/22 10:07:57;;;;;;;8.63;3.15;;;;;;;28.95;36.47;101379.34;6186230;23;20017;-91
2022/08/22 10:10:45;;;;;;;8.60;3.33;;;;;;;29.03;38.44;101370.16;6184519;23;20438;-91
2022/08/22 10:13:40;;;;;;;6.90;3.38;;;;;;;29.16;38.10;101369.16;6185476;23;20012;-90
2022/08/22 10:16:41;;;;;;;9.18;3.88;;;;;;;29.09;38.03;101368.00;6186613;23;20013;-89
2022/08/22 10:19:21;;;;;;;11.98;3.30;;;;;;;28.99;37.81;101367.16;6164984;23;20067;-89
2022/08/22 10:25:43;;;;;;;8.33;3.17;;;;;;;28.71;38.23;101358.28;6123830;23;20009;-89
2022/08/22 10:28:40;;;;;;;9.80;3.63;;;;;;;28.68;38.05;101361.75;6185340;23;20001;-90
2022/08/22 10:31:30;;;;;;;10.02;3.20;;;;;;;28.70;37.31;101351.06;6187047;23;20494;-90
2022/08/22 10:34:02;;;;;;;8.73;3.53;;;;;;;28.97;36.08;101349.13;6185436;23;20008;-89
2022/08/22 10:36:35;;;;;;;8.63;3.78;;;;;;;29.27;36.14;101355.69;6186211;23;20013;-89
2022/08/22 10:39:18;;;;;;;10.03;3.43;;;;;;;29.68;36.09;101343.09;6185100;23;20063;-88
2022/08/22 10:42:21;;;;;;;7.72;3.88;;;;;;;29.91;35.59;101345.66;6185271;23;20016;-89
2022/08/22 10:45:16;;;;;;;8.45;3.85;;;;;;;30.17;36.11;101347.53;6138404;23;20025;-89
2022/08/22 10:48:03;;;;;;;7.35;3.63;;;;;;;30.35;35.85;101337.88;6185533;23;20013;-89
2022/08/22 10:50:41;;;;;;;11.88;4.07;;;;;;;30.47;33.00;101333.56;6185525;23;20088;-92
2022/08/22 10:53:36;;;;;;;8.33;3.23;;;;;;;30.78;34.23;101339.59;6185874;23;20048;-91
2022/08/22 10:56:25;;;;;;;8.75;2.70;;;;;;;31.43;32.54;101333.56;6186490;23;20013;-92
2022/08/22 10:59:15;;;;;;;6.45;3.00;;;;;;;31.77;32.72;101323.16;6185396;23;20005;-92
2022/08/22 11:02:38;;;;;;;7.10;3.00;;;;;;;32.01;32.33;101329.94;6186006;23;20001;-91
2022/08/22 11:05:16;;;;;;;9.25;3.03;;;;;;;32.23;31.05;101327.84;6146692;23;20425;-90
2022/08/22 11:08:05;;;;;;;10.50;3.50;;;;;;;32.36;31.23;101337.88;6183869;23;20398;-90
2022/08/22 11:11:12;;;;;;;6.40;3.17;;;;;;;32.55;32.38;101330.84;6185297;23;20088;-90
2022/08/22 11:13:46;;;;;;;8.50;3.30;;;;;;;32.21;30.54;101331.00;6142260;23;20009;-90
2022/08/22 11:16:30;;;;;;;10.60;3.47;;;;;;;32.20;30.64;101326.56;6185419;23;20281;-90
2022/08/22 11:19:21;;;;;;;8.32;3.83;;;;;;;32.72;31.54;101332.56;6185283;23;20012;-90
2022/08/22 11:21:58;;;;;;;9.23;3.70;;;;;;;33.14;29.91;101326.56;6186648;23;20016;-90
2022/08/22 11:24:35;;;;;;;7.00;3.35;;;;;;;33.40;29.32;101326.91;6185191;23;20033;-90
2022/08/22 11:27:33;;;;;;;11.02;3.80;;;;;;;33.31;29.65;101329.06;6185735;23;20011;-91
2022/08/22 11:30:16;;;;;;;8.48;3.13;;;;;;;33.08;29.81;101320.38;6185976;23;20009;-93
2022/08/22 11:33:18;;;;;;;8.52;3.28;;;;;;;32.94;30.82;101320.78;6184435;23;20004;-87
2022/08/22 11:35:50;;;;;;;13.10;3.80;;;;;;;32.67;29.83;101320.44;6185715;23;20009;-87
2022/08/22 11:38:42;;;;;;;9.43;3.22;;;;;;;32.65;30.79;101311.50;6184853;23;20009;-87
2022/08/22 11:41:45;;;;;;;7.13;3.45;;;;;;;32.53;30.40;101311.53;6184948;23;20005;-88
2022/08/22 11:44:20;;;;;;;8.13;3.35;;;;;;;32.33;29.38;101316.97;6152018;23;20009;-87
2022/08/22 11:46:56;;;;;;;8.60;3.50;;;;;;;32.37;29.86;101310.63;6185163;23;20371;-88
2022/08/22 11:50:09;;;;;;;11.07;3.73;;;;;;;32.60;31.05;101294.91;6184969;23;20001;-87
2022/08/22 11:53:01;;;;;;;;;;;;;;;;;;;;;
2022/08/22 11:55:39;;;;;;;6.93;3.67;;;;;;;32.32;29.78;101304.09;6186898;23;20471;-88
2022/08/22 11:58:33;;;;;;;8.05;3.40;;;;;;;32.26;31.04;101310.28;6185151;23;20013;-87
2022/08/22 12:01:08;;;;;;;9.18;3.50;;;;;;;32.01;30.65;101299.88;6184870;23;20084;-88
2022/08/22 12:03:49;;;;;;;9.80;3.37;;;;;;;31.95;31.06;101300.44;6184433;23;20001;-88
2022/08/22 12:06:34;;;;;;;10.80;3.55;;;;;;;31.88;30.67;101300.25;6184525;23;20068;-88
2022/08/22 12:09:17;;;;;;;8.68;4.05;;;;;;;31.66;31.01;101302.31;6184164;23;20009;-88
2022/08/22 12:12:02;;;;;;;6.10;3.40;;;;;;;31.28;31.28;101298.59;6184887;23;20017;-88
2022/08/22 12:15:04;;;;;;;11.45;3.70;;;;;;;31.30;32.17;101301.06;6184950;23;20013;-88
2022/08/22 12:17:32;;;;;;;9.37;3.47;;;;;;;31.08;31.73;101296.69;6147245;23;20035;-88
2022/08/22 12:20:42;;;;;;;9.15;3.50;;;;;;;31.09;32.54;101296.34;6184340;23;20009;-88
2022/08/22 12:23:31;;;;;;;12.68;3.47;;;;;;;30.87;32.61;101302.28;6131178;23;20009;-88
2022/08/22 12:26:23;;;;;;;9.25;3.25;;;;;;;30.99;32.17;101302.38;6184250;23;20088;-88
2022/08/22 12:29:00;;;;;;;6.72;3.05;;;;;;;30.94;31.63;101300.53;6184638;23;20045;-88
2022/08/22 12:32:03;;;;;;;7.10;3.20;;;;;;;30.84;32.03;101298.19;6184165;23;20009;-88
2022/08/22 12:34:57;;;;;;;8.77;3.42;;;;;;;30.77;32.42;101292.31;6186478;23;20076;-88
2022/08/22 12:37:37;;;;;;;8.18;2.95;;;;;;;30.59;32.47;101300.88;6184834;23;20013;-88
2022/08/22 12:40:08;;;;;;;9.57;3.53;;;;;;;30.65;32.13;101295.03;6184603;23;20005;-87
2022/08/22 12:42:42;;;;;;;12.05;3.65;;;;;;;30.69;31.68;101296.00;6185525;23;20005;-88
2022/08/22 12:45:29;;;;;;;12.30;3.20;;;;;;;30.90;32.27;101301.56;6185620;23;20074;-88
2022/08/22 12:48:15;;;;;;;8.98;3.25;;;;;;;31.01;31.83;101294.44;6184053;23;20052;-88
2022/08/22 12:51:15;;;;;;;7.30;3.42;;;;;;;31.41;31.97;101281.81;6186221;23;20079;-88
2022/08/22 12:54:00;;;;;;;8.02;3.00;;;;;;;31.65;30.35;101281.03;6183718;23;20005;-88
2022/08/22 12:56:31;;;;;;;8.43;3.15;;;;;;;31.93;30.92;101281.16;6186082;23;20079;-88
2022/08/22 12:59:22;;;;;;;8.17;3.17;;;;;;;32.22;30.93;101281.31;6183872;23;20013;-88
2022/08/22 13:01:53;;;;;;;8.35;3.10;;;;;;;32.57;29.80;101272.31;6184217;23;20005;-87